Time;durP1;ratioP1;P1;durP2;ratioP2;P2;SDS_P1;SDS_P2;PMS_P1;PMS_P2;Temp;Humidity;BMP_temperature;BMP_pressure;BME280_temperature;BME280_humidity;BME280_pressure;Samples;Min_cycle;Max_cycle;Signal;HPM_P1;HPM_P2
2023/03/21 00:01:55;;;;;;;9.15;6.03;;;;;;;13.64;59.95;99729.81;4378239;32;24026;-85
2023/03/21 00:04:21;;;;;;;9.82;6.43;;;;;;;13.61;59.94;99734.34;4366126;32;20379;-84
2023/03/21 00:06:47;;;;;;;9.77;6.07;;;;;;;13.61;59.94;99734.34;4378422;32;20078;-85
2023/03/21 00:09:13;;;;;;;10.45;6.53;;;;;;;13.73;59.95;99726.81;4378913;32;20181;-85
2023/03/21 00:11:38;;;;;;;13.43;6.35;;;;;;;13.64;59.95;99723.75;4378153;32;20161;-83
2023/03/21 00:14:07;;;;;;;8.77;6.37;;;;;;;13.53;59.94;99726.84;4372900;32;20169;-83
2023/03/21 00:16:34;;;;;;;9.93;6.85;;;;;;;13.49;59.94;99715.69;4387477;32;20189;-83
2023/03/21 00:19:02;;;;;;;9.00;5.93;;;;;;;13.64;59.95;99721.13;4379036;32;20140;-83
2023/03/21 00:21:31;;;;;;;12.65;6.55;;;;;;;13.58;59.95;99724.03;4365972;32;20178;-83
2023/03/21 00:23:56;;;;;;;7.62;5.32;;;;;;;13.76;59.95;99716.19;4367129;32;20117;-84
2023/03/21 00:26:21;;;;;;;13.62;7.50;;;;;;;13.55;59.93;99722.41;4364782;32;31511;-83
2023/03/21 00:28:47;;;;;;;9.20;6.50;;;;;;;13.54;59.94;99725.09;4378113;32;24947;-82
2023/03/21 00:31:12;;;;;;;9.75;6.12;;;;;;;13.36;59.93;99724.97;4365479;32;24583;-83
2023/03/21 00:33:38;;;;;;;9.02;6.85;;;;;;;13.42;59.94;99719.47;4378260;32;21467;-83
2023/03/21 00:36:04;;;;;;;10.75;6.30;;;;;;;13.35;59.93;99715.44;4392482;32;20162;-82
2023/03/21 00:38:29;;;;;;;9.98;6.65;;;;;;;13.31;59.92;99711.25;4378628;32;20150;-83
2023/03/21 00:40:55;;;;;;;7.20;5.60;;;;;;;13.55;59.93;99705.84;4377820;32;20137;-83
2023/03/21 00:43:28;;;;;;;8.63;6.00;;;;;;;13.36;59.93;99709.28;4378528;32;21473;-83
2023/03/21 00:45:54;;;;;;;9.13;5.97;;;;;;;13.53;59.93;99711.16;4368682;32;20090;-83
2023/03/21 00:48:19;;;;;;;8.85;5.95;;;;;;;13.47;59.93;99706.19;4379706;32;20179;-84
2023/03/21 00:50:45;;;;;;;8.75;5.78;;;;;;;13.59;59.94;99705.66;4408800;32;20156;-83
2023/03/21 00:53:11;;;;;;;8.52;5.85;;;;;;;13.71;59.95;99702.47;4382723;32;20398;-83
2023/03/21 00:55:37;;;;;;;7.25;4.97;;;;;;;13.44;59.93;99701.09;4382499;32;20121;-83
2023/03/21 00:58:03;;;;;;;8.18;5.53;;;;;;;13.55;59.93;99700.62;4394738;32;20458;-83
2023/03/21 01:00:29;;;;;;;9.00;4.90;;;;;;;13.49;59.94;99697.38;4394918;32;20171;-83
2023/03/21 01:02:57;;;;;;;9.85;5.85;;;;;;;13.27;59.92;99701.00;4394846;32;20153;-83
2023/03/21 01:08:12;;;;;;;8.65;5.20;;;;;;;13.25;59.92;99695.84;4386277;32;20116;-83
2023/03/21 01:10:39;;;;;;;9.45;5.70;;;;;;;13.42;59.93;99701.16;4369682;32;20180;-83
2023/03/21 01:13:04;;;;;;;11.65;5.78;;;;;;;13.27;59.93;99695.78;4394794;32;20098;-83
2023/03/21 01:15:30;;;;;;;12.37;5.32;;;;;;;13.25;59.92;99697.59;4394564;32;20193;-83
2023/03/21 01:17:55;;;;;;;9.07;5.95;;;;;;;13.12;59.92;99697.25;4408510;32;20128;-83
2023/03/21 01:20:21;;;;;;;7.72;4.72;;;;;;;13.18;59.92;99695.25;4408069;32;20755;-83
2023/03/21 01:22:46;;;;;;;12.25;5.95;;;;;;;12.99;59.91;99696.91;4382134;32;20185;-83
2023/03/21 01:25:11;;;;;;;8.15;5.22;;;;;;;13.08;59.91;99693.06;4408046;32;20525;-84
2023/03/21 01:27:37;;;;;;;10.63;5.90;;;;;;;13.10;59.91;99693.84;4394807;32;20141;-82
2023/03/21 01:30:03;;;;;;;8.20;5.18;;;;;;;12.91;59.91;99688.56;4408070;32;20105;-83
2023/03/21 01:32:29;;;;;;;14.55;5.80;;;;;;;12.80;59.89;99682.94;4408409;32;20098;-82
2023/03/21 01:34:54;;;;;;;10.85;6.00;;;;;;;12.76;59.90;99692.66;4407831;32;20097;-82
2023/03/21 01:37:19;;;;;;;14.63;5.47;;;;;;;12.65;59.88;99694.03;4408138;32;20148;-82
2023/03/21 01:39:45;;;;;;;7.43;5.57;;;;;;;12.59;59.89;99696.00;4406762;32;20097;-82
2023/03/21 01:42:13;;;;;;;10.32;5.97;;;;;;;12.72;59.89;99700.69;4393944;32;22216;-83
2023/03/21 01:45:33;;;;;;;9.38;5.93;;;;;;;12.60;59.89;99699.44;4381866;32;20086;-83
2023/03/21 01:47:58;;;;;;;7.57;5.80;;;;;;;12.57;59.89;99692.59;4345922;33;20113;-83
2023/03/21 01:50:24;;;;;;;8.75;5.95;;;;;;;12.42;59.88;99701.03;4401965;32;22819;-84
2023/03/21 01:52:49;;;;;;;12.35;5.45;;;;;;;12.33;59.86;99701.41;4394227;32;20117;-83
2023/03/21 01:55:15;;;;;;;9.38;5.55;;;;;;;12.43;59.88;99699.28;4381739;32;20414;-84
2023/03/21 01:57:46;;;;;;;10.23;5.18;;;;;;;12.49;59.88;99697.25;4381679;32;20086;-83
2023/03/21 02:00:11;;;;;;;9.50;5.37;;;;;;;12.39;59.87;99695.94;4381759;32;20129;-83
2023/03/21 02:02:56;;;;;;;12.30;5.05;;;;;;;12.40;59.87;99691.56;4381338;32;20109;-83
2023/03/21 02:05:36;;;;;;;7.87;5.18;;;;;;;12.49;59.88;99693.78;4383751;32;20165;-84
2023/03/21 02:08:02;;;;;;;8.02;5.50;;;;;;;12.34;59.87;99700.50;4382699;32;20095;-83
2023/03/21 02:10:28;;;;;;;10.38;5.50;;;;;;;12.35;59.88;99691.75;4393307;32;29478;-83
2023/03/21 02:12:56;;;;;;;10.52;5.37;;;;;;;12.28;59.87;99691.13;4393884;32;20130;-83
2023/03/21 02:15:22;;;;;;;7.22;4.95;;;;;;;12.23;59.87;99695.69;4382106;32;20730;-82
2023/03/21 02:17:58;;;;;;;8.35;5.18;;;;;;;12.22;59.87;99694.00;4381101;32;21800;-83
2023/03/21 02:20:38;;;;;;;8.43;5.60;;;;;;;12.27;59.86;99701.63;4394060;32;20124;-84
2023/03/21 02:23:03;;;;;;;;;;;;;;;12.27;59.88;99691.19;4394453;32;20158;-83
2023/03/21 02:25:47;;;;;;;8.07;5.35;;;;;;;12.27;59.86;99697.25;4393749;32;20309;-83
2023/03/21 02:28:17;;;;;;;10.60;5.25;;;;;;;12.41;59.87;99695.87;4382473;32;20469;-84
2023/03/21 02:31:15;;;;;;;8.98;5.45;;;;;;;12.28;59.86;99698.13;4381542;32;20106;-83
2023/03/21 02:33:40;;;;;;;6.72;4.95;;;;;;;12.31;59.87;99691.94;4401870;32;20141;-83
2023/03/21 02:36:45;;;;;;;7.57;5.78;;;;;;;12.36;59.88;99690.00;4393600;32;20439;-83
2023/03/21 02:39:26;;;;;;;8.90;5.68;;;;;;;12.26;59.86;99689.50;4393628;32;20112;-83
2023/03/21 02:42:05;;;;;;;11.05;5.57;;;;;;;12.40;59.87;99691.56;4407427;32;20098;-83
2023/03/21 02:44:44;;;;;;;12.18;6.12;;;;;;;12.28;59.86;99698.13;4369038;32;20165;-84
2023/03/21 02:47:17;;;;;;;6.87;4.82;;;;;;;12.43;59.88;99692.28;4393577;32;20499;-83
2023/03/21 02:49:50;;;;;;;7.87;4.72;;;;;;;12.57;59.89;99687.38;4381659;32;20137;-83
2023/03/21 02:52:21;;;;;;;9.32;5.95;;;;;;;12.49;59.88;99693.78;4395786;32;20132;-84
2023/03/21 02:54:47;;;;;;;8.77;5.22;;;;;;;12.47;59.88;99693.84;4395756;32;20414;-85
2023/03/21 02:57:13;;;;;;;7.57;5.53;;;;;;;12.33;59.87;99696.19;4383388;32;20164;-83
2023/03/21 02:59:38;;;;;;;7.35;4.85;;;;;;;12.52;59.88;99691.06;4383128;32;20416;-83
2023/03/21 03:02:04;;;;;;;8.75;5.50;;;;;;;12.39;59.87;99695.09;4382545;32;24491;-83
2023/03/21 03:04:30;;;;;;;7.15;4.90;;;;;;;12.44;59.88;99686.16;4383247;32;20447;-83
2023/03/21 03:07:26;;;;;;;8.38;5.55;;;;;;;12.47;59.88;99695.63;4409517;32;20471;-83
2023/03/21 03:10:00;;;;;;;7.70;5.47;;;;;;;12.49;59.88;99691.19;4397428;32;20258;-84
2023/03/21 03:12:30;;;;;;;7.55;5.37;;;;;;;12.65;59.88;99691.41;4395513;32;20443;-83
2023/03/21 03:15:06;;;;;;;9.73;5.67;;;;;;;12.32;59.87;99698.88;4395674;32;20114;-84
2023/03/21 03:17:38;;;;;;;8.57;4.87;;;;;;;12.39;59.87;99701.16;4383454;32;20113;-84
2023/03/21 03:20:28;;;;;;;10.55;6.07;;;;;;;12.14;59.86;99696.06;4383347;32;20515;-83
2023/03/21 03:22:53;;;;;;;;;;;;;;;12.19;59.86;99695.87;4409754;32;20106;-83
2023/03/21 03:25:22;;;;;;;7.80;4.90;;;;;;;12.37;59.88;99694.31;4409460;32;19981;-83
2023/03/21 03:27:48;;;;;;;7.78;5.18;;;;;;;12.45;59.88;99695.69;4395405;32;20489;-86
2023/03/21 03:30:14;;;;;;;8.52;5.65;;;;;;;12.23;59.87;99692.22;4382986;32;20116;-83
2023/03/21 03:32:43;;;;;;;8.52;4.43;;;;;;;12.22;59.87;99690.53;4382996;32;20103;-83
2023/03/21 03:35:09;;;;;;;7.80;4.40;;;;;;;12.30;59.87;99693.69;4383069;32;20105;-84
2023/03/21 03:37:36;;;;;;;10.60;4.50;;;;;;;12.55;59.88;99686.59;4382898;32;20151;-83
2023/03/21 03:40:17;;;;;;;7.65;4.65;;;;;;;12.35;59.86;99688.31;4395427;32;20148;-85
2023/03/21 03:42:48;;;;;;;5.25;4.00;;;;;;;12.22;59.87;99693.16;4383900;32;20113;-83
2023/03/21 03:45:14;;;;;;;6.10;3.80;;;;;;;12.34;59.87;99692.69;4383100;32;20124;-85
2023/03/21 03:47:41;;;;;;;5.78;3.60;;;;;;;12.28;59.86;99692.91;4395120;32;20124;-83
2023/03/21 03:50:26;;;;;;;6.82;4.47;;;;;;;12.56;59.88;99690.03;4395203;32;20094;-83
2023/03/21 03:52:53;;;;;;;6.20;3.97;;;;;;;12.26;59.86;99692.09;4395637;32;20175;-84
2023/03/21 03:55:20;;;;;;;7.05;4.20;;;;;;;12.32;59.87;99691.03;4383070;32;20109;-83
2023/03/21 03:57:46;;;;;;;8.35;4.35;;;;;;;12.38;59.87;99693.41;4383090;32;20130;-83
2023/03/21 04:00:12;;;;;;;5.53;4.53;;;;;;;12.27;59.86;99699.88;4395149;32;20082;-86
2023/03/21 04:02:37;;;;;;;6.75;4.32;;;;;;;12.25;59.86;99701.69;4381701;32;20172;-83
2023/03/21 04:05:04;;;;;;;7.12;4.72;;;;;;;12.29;59.88;99691.97;4395393;32;20126;-83
2023/03/21 04:07:30;;;;;;;7.95;5.10;;;;;;;12.33;59.87;99693.59;4382814;32;20094;-83
2023/03/21 04:09:55;;;;;;;7.68;4.47;;;;;;;12.18;59.86;99692.41;4382733;32;20415;-84
2023/03/21 04:12:20;;;;;;;6.18;4.45;;;;;;;12.14;59.86;99690.00;4382583;32;20109;-85
2023/03/21 04:14:46;;;;;;;7.70;4.70;;;;;;;12.25;59.86;99686.03;4382582;32;20152;-83
2023/03/21 04:17:11;;;;;;;7.00;4.60;;;;;;;12.13;59.86;99689.16;4395254;32;20173;-84
2023/03/21 04:19:37;;;;;;;9.40;4.90;;;;;;;12.22;59.86;99687.94;4382162;32;20497;-83
2023/03/21 04:22:02;;;;;;;7.22;4.40;;;;;;;12.25;59.86;99690.41;4382180;32;20813;-84
2023/03/21 04:24:32;;;;;;;7.18;4.68;;;;;;;11.97;59.84;99688.87;4394927;32;20145;-84
2023/03/21 04:26:59;;;;;;;7.57;4.60;;;;;;;12.04;59.85;99692.09;4383687;32;20116;-84
2023/03/21 04:29:24;;;;;;;6.47;4.37;;;;;;;12.11;59.86;99696.19;4395214;32;20447;-84
2023/03/21 04:31:50;;;;;;;5.95;4.62;;;;;;;12.22;59.87;99682.72;4394876;32;20154;-86
2023/03/21 04:34:15;;;;;;;9.35;5.40;;;;;;;12.17;59.86;99680.28;4394769;32;20328;-83
2023/03/21 04:36:43;;;;;;;8.25;4.70;;;;;;;12.14;59.86;99684.78;4408946;32;20164;-84
2023/03/21 04:39:11;;;;;;;7.28;5.20;;;;;;;12.29;59.87;99689.37;4383074;32;20104;-84
2023/03/21 04:41:40;;;;;;;7.97;4.80;;;;;;;12.22;59.87;99682.72;4395296;32;20156;-84
2023/03/21 04:44:06;;;;;;;7.65;4.82;;;;;;;12.24;59.87;99680.87;4382584;32;20115;-84
2023/03/21 04:46:32;;;;;;;6.82;4.80;;;;;;;12.34;59.87;99684.84;4395056;32;20137;-83
2023/03/21 04:48:58;;;;;;;7.75;4.85;;;;;;;12.25;59.86;99687.81;4394862;32;20398;-83
2023/03/21 04:51:23;;;;;;;7.30;4.93;;;;;;;12.37;59.87;99689.94;4394905;32;20120;-83
2023/03/21 04:53:51;;;;;;;9.98;5.75;;;;;;;12.43;59.88;99681.84;4382152;32;20128;-83
2023/03/21 04:56:17;;;;;;;7.75;4.60;;;;;;;12.42;59.88;99680.16;4395193;32;20112;-85
2023/03/21 04:58:42;;;;;;;9.25;5.28;;;;;;;12.43;59.88;99679.25;4394972;32;20090;-83
2023/03/21 05:01:07;;;;;;;7.40;4.97;;;;;;;12.27;59.86;99692.03;4394537;32;20165;-83
2023/03/21 05:03:33;;;;;;;8.18;5.07;;;;;;;12.28;59.86;99690.28;4394450;32;20137;-83
2023/03/21 05:06:02;;;;;;;7.85;5.55;;;;;;;12.46;59.87;99693.91;4394632;32;20115;-84
2023/03/21 05:08:27;;;;;;;6.68;4.87;;;;;;;12.50;59.89;99693.72;4394890;32;20106;-85
2023/03/21 05:10:53;;;;;;;6.85;4.80;;;;;;;12.67;59.89;99695.66;4381403;32;20995;-85
2023/03/21 05:13:18;;;;;;;9.57;4.60;;;;;;;12.44;59.87;99704.44;4394425;32;20165;-84
2023/03/21 05:15:44;;;;;;;6.20;4.43;;;;;;;12.59;59.89;99700.38;4394686;32;20125;-85
2023/03/21 05:18:09;;;;;;;8.40;5.10;;;;;;;12.59;59.89;99705.59;4408539;32;20415;-86
2023/03/21 05:20:36;;;;;;;8.50;5.15;;;;;;;12.54;59.89;99694.47;4408243;32;20176;-86
2023/03/21 05:23:02;;;;;;;9.18;5.20;;;;;;;12.55;59.88;99697.03;4382113;32;20090;-85
2023/03/21 05:25:34;;;;;;;9.88;5.25;;;;;;;12.74;59.90;99697.09;4394847;32;20152;-85
2023/03/21 05:28:03;;;;;;;7.37;5.12;;;;;;;12.65;59.88;99700.09;4395263;32;20145;-85
2023/03/21 05:30:28;;;;;;;8.00;5.50;;;;;;;12.76;59.89;99695.25;4382525;32;20106;-85
2023/03/21 05:32:54;;;;;;;8.60;5.37;;;;;;;12.78;59.89;99703.91;4381990;32;20132;-86
2023/03/21 05:35:19;;;;;;;6.75;4.70;;;;;;;12.70;59.88;99699.91;4381806;32;20495;-86
2023/03/21 05:37:45;;;;;;;6.93;5.28;;;;;;;12.85;59.89;99701.88;4382025;32;20112;-85
2023/03/21 05:40:11;;;;;;;8.70;4.93;;;;;;;12.86;59.89;99700.97;4393974;32;20453;-86
2023/03/21 05:42:36;;;;;;;6.95;4.55;;;;;;;12.93;59.90;99709.41;4394608;32;20118;-86
2023/03/21 05:45:02;;;;;;;7.57;5.43;;;;;;;13.00;59.90;99703.84;4394263;32;20384;-85
2023/03/21 05:47:28;;;;;;;8.95;5.20;;;;;;;12.93;59.90;99707.62;4394412;32;20445;-86
2023/03/21 05:49:53;;;;;;;7.45;4.82;;;;;;;13.03;59.91;99714.19;4394219;32;20122;-85
2023/03/21 05:52:19;;;;;;;7.90;5.35;;;;;;;13.20;59.92;99714.31;4381680;32;20125;-86
2023/03/21 05:54:44;;;;;;;9.48;5.25;;;;;;;13.29;59.92;99717.47;4381629;32;20138;-86
2023/03/21 05:57:10;;;;;;;9.88;5.50;;;;;;;13.44;59.93;99716.78;4408085;32;20564;-86
2023/03/21 05:59:35;;;;;;;7.53;5.40;;;;;;;13.49;59.93;99712.22;4394264;32;20505;-86
2023/03/21 06:02:01;;;;;;;8.13;5.30;;;;;;;13.59;59.94;99717.88;4381618;32;20118;-86
2023/03/21 06:04:26;;;;;;;6.90;4.93;;;;;;;13.52;59.94;99718.16;4407964;32;20463;-86
2023/03/21 06:06:52;;;;;;;8.88;5.35;;;;;;;13.48;59.93;99719.19;4381587;32;20142;-86
2023/03/21 06:09:19;;;;;;;9.20;5.72;;;;;;;13.50;59.93;99716.53;4381605;32;20483;-86
2023/03/21 06:11:47;;;;;;;9.27;5.85;;;;;;;13.70;59.94;99715.59;4394152;32;20129;-86
2023/03/21 06:14:12;;;;;;;8.63;4.80;;;;;;;13.77;59.95;99720.50;4381305;32;20090;-86
2023/03/21 06:16:38;;;;;;;7.10;5.03;;;;;;;13.89;59.95;99726.09;4393642;32;20116;-86
2023/03/21 06:19:03;;;;;;;9.60;5.68;;;;;;;14.00;59.96;99724.69;4393926;32;20246;-86
2023/03/21 06:21:29;;;;;;;12.20;4.90;;;;;;;14.06;59.96;99720.94;4407561;32;20150;-86
2023/03/21 06:23:54;;;;;;;7.32;5.28;;;;;;;14.23;59.97;99721.00;4393618;32;20082;-86
2023/03/21 06:26:21;;;;;;;8.55;5.40;;;;;;;14.44;59.98;99721.78;4395767;32;20118;-86
2023/03/21 06:28:48;;;;;;;7.53;4.93;;;;;;;14.59;59.99;99712.31;4396217;32;20172;-87
2023/03/21 06:31:13;;;;;;;12.20;6.10;;;;;;;14.51;59.99;99717.09;4383383;32;20158;-86
2023/03/21 06:33:39;;;;;;;8.10;4.93;;;;;;;14.32;59.97;99720.53;4383137;32;20545;-86
2023/03/21 06:36:04;;;;;;;8.95;5.22;;;;;;;14.37;59.98;99723.78;4395862;32;20164;-86
2023/03/21 06:38:30;;;;;;;10.05;5.37;;;;;;;14.58;59.99;99721.09;4395908;32;20163;-87
2023/03/21 06:40:56;;;;;;;6.57;4.68;;;;;;;14.49;59.99;99716.31;4383260;32;20129;-86
2023/03/21 06:43:21;;;;;;;10.52;5.10;;;;;;;14.53;59.99;99723.94;4395811;32;20140;-85
2023/03/21 06:45:47;;;;;;;6.70;5.07;;;;;;;14.70;59.99;99717.88;4383320;32;20114;-86
2023/03/21 06:48:12;;;;;;;8.57;5.30;;;;;;;14.76;60.00;99714.09;4409391;32;20093;-85
2023/03/21 06:50:37;;;;;;;7.60;5.75;;;;;;;14.80;60.01;99711.25;4395475;32;20132;-85
2023/03/21 06:53:03;;;;;;;7.93;5.20;;;;;;;14.87;60.01;99717.03;4409212;32;20323;-84
2023/03/21 06:55:28;;;;;;;6.95;5.00;;;;;;;14.87;60.01;99717.88;4395272;32;21845;-84
2023/03/21 06:57:57;;;;;;;8.40;4.55;;;;;;;14.78;60.00;99715.72;4409377;32;20187;-84
2023/03/21 07:00:22;;;;;;;5.87;3.90;;;;;;;14.67;60.00;99731.16;4395645;32;20114;-85
2023/03/21 07:02:48;;;;;;;8.45;4.45;;;;;;;14.50;59.99;99728.47;4383183;32;20089;-85
2023/03/21 07:05:13;;;;;;;6.70;4.00;;;;;;;14.51;59.98;99724.94;4383193;32;20102;-84
2023/03/21 07:07:39;;;;;;;5.65;4.05;;;;;;;14.43;59.98;99715.69;4383182;32;20107;-83
2023/03/21 07:10:05;;;;;;;6.80;4.10;;;;;;;14.29;59.97;99725.94;4409425;32;20121;-84
2023/03/21 07:12:34;;;;;;;9.45;4.80;;;;;;;14.32;59.97;99724.94;4395496;32;20575;-83
2023/03/21 07:15:00;;;;;;;7.87;4.40;;;;;;;14.53;59.99;99725.72;4383522;32;20201;-84
2023/03/21 07:17:26;;;;;;;6.20;4.20;;;;;;;14.81;60.01;99722.59;4395407;32;20143;-84
2023/03/21 07:19:51;;;;;;;7.45;4.12;;;;;;;14.64;60.00;99724.25;4408318;32;23665;-85
2023/03/21 07:22:16;;;;;;;6.50;3.80;;;;;;;14.60;59.99;99724.47;4382602;32;20086;-85
2023/03/21 07:24:42;;;;;;;8.23;4.95;;;;;;;14.81;60.01;99733.06;4382626;32;20090;-84
2023/03/21 07:27:07;;;;;;;6.68;4.45;;;;;;;14.93;60.01;99729.84;4408262;32;20153;-85
2023/03/21 07:29:33;;;;;;;4.62;3.90;;;;;;;15.12;60.02;99734.97;4393876;32;20153;-84
2023/03/21 07:31:58;;;;;;;6.72;4.32;;;;;;;15.36;60.03;99731.94;4394442;32;20098;-85
2023/03/21 07:34:26;;;;;;;9.32;4.50;;;;;;;15.55;60.05;99739.72;4394290;32;20144;-85
2023/03/21 07:36:51;;;;;;;5.60;4.07;;;;;;;15.69;60.05;99732.94;4382300;32;20105;-84
2023/03/21 07:39:18;;;;;;;6.80;4.97;;;;;;;15.77;60.05;99733.38;4381502;32;20102;-86
2023/03/21 07:41:43;;;;;;;6.60;4.20;;;;;;;15.78;60.06;99728.03;4394143;32;20495;-84
2023/03/21 07:44:09;;;;;;;5.97;4.07;;;;;;;15.76;60.05;99726.41;4381450;32;20165;-85
2023/03/21 07:46:34;;;;;;;7.00;4.03;;;;;;;15.58;60.04;99723.84;4394241;32;20109;-85
2023/03/21 07:49:00;;;;;;;7.20;4.68;;;;;;;15.81;60.06;99727.03;4407765;32;20146;-85
2023/03/21 07:51:25;;;;;;;5.70;3.90;;;;;;;15.91;60.06;99717.72;4381660;32;20348;-84
2023/03/21 07:53:51;;;;;;;5.12;3.72;;;;;;;15.80;60.06;99720.06;4393792;32;24215;-86
2023/03/21 07:56:16;;;;;;;4.68;3.83;;;;;;;15.93;60.07;99721.97;4394401;32;20142;-85
2023/03/21 07:58:42;;;;;;;6.43;3.70;;;;;;;15.98;60.06;99718.25;4381220;32;23197;-84
2023/03/21 08:01:07;;;;;;;7.07;3.97;;;;;;;16.04;60.07;99710.87;4381553;32;20130;-84
2023/03/21 08:03:33;;;;;;;6.75;3.90;;;;;;;15.94;60.07;99718.41;4394074;32;20104;-86
2023/03/21 08:06:00;;;;;;;5.72;4.30;;;;;;;16.07;60.07;99707.22;4393866;32;20144;-85
2023/03/21 08:08:25;;;;;;;7.55;3.85;;;;;;;16.34;60.09;99720.63;4394672;32;20149;-84
2023/03/21 08:10:51;;;;;;;6.85;4.00;;;;;;;16.37;60.08;99710.78;4382689;32;20485;-84
2023/03/21 08:13:16;;;;;;;6.65;3.87;;;;;;;16.49;60.09;99711.84;4382189;32;20419;-84
2023/03/21 08:15:42;;;;;;;7.07;4.15;;;;;;;16.63;60.10;99711.94;4408917;32;20159;-85
2023/03/21 08:18:07;;;;;;;7.65;4.37;;;;;;;16.61;60.10;99719.06;4394879;32;20129;-85
2023/03/21 08:20:33;;;;;;;6.32;4.35;;;;;;;16.63;60.11;99721.59;4394876;32;20082;-85
2023/03/21 08:22:58;;;;;;;7.28;4.97;;;;;;;16.74;60.10;99711.31;4394739;32;20152;-84
2023/03/21 08:25:24;;;;;;;9.13;4.43;;;;;;;17.07;60.12;99713.78;4382046;32;23494;-84
2023/03/21 08:27:49;;;;;;;6.03;4.15;;;;;;;17.13;60.13;99711.63;4382564;32;20163;-85
2023/03/21 08:30:17;;;;;;;6.93;3.85;;;;;;;17.25;60.14;99706.56;4382613;32;20089;-84
2023/03/21 08:32:43;;;;;;;6.15;3.97;;;;;;;17.45;60.14;99707.06;4382679;32;20135;-85
2023/03/21 08:35:10;;;;;;;5.43;4.20;;;;;;;17.42;60.15;99712.50;4394946;32;20098;-85
2023/03/21 08:37:36;;;;;;;8.20;4.10;;;;;;;17.51;60.15;99713.75;4382678;32;20391;-85
2023/03/21 08:40:06;;;;;;;6.95;4.12;;;;;;;17.49;60.15;99715.59;4395036;32;20446;-85
2023/03/21 08:42:32;;;;;;;10.20;4.12;;;;;;;17.38;60.15;99716.25;4370714;32;20116;-85
2023/03/21 08:44:57;;;;;;;7.50;4.65;;;;;;;17.55;60.15;99715.25;4381862;32;26523;-85
2023/03/21 08:47:22;;;;;;;5.95;3.90;;;;;;;17.44;60.14;99717.66;4381759;32;20158;-85
2023/03/21 08:49:48;;;;;;;6.10;4.85;;;;;;;17.29;60.14;99711.56;4393629;32;20681;-85
2023/03/21 08:52:13;;;;;;;6.00;4.10;;;;;;;17.47;60.15;99714.84;4393356;32;24136;-85
2023/03/21 08:54:40;;;;;;;7.93;4.35;;;;;;;17.77;60.17;99709.53;4393506;32;21539;-84
2023/03/21 08:57:07;;;;;;;6.55;3.62;;;;;;;17.76;60.17;99711.31;4381599;32;20590;-85
2023/03/21 08:59:32;;;;;;;6.93;4.05;;;;;;;17.75;60.15;99709.63;4381482;32;20170;-85
2023/03/21 09:01:58;;;;;;;6.72;4.18;;;;;;;17.77;60.17;99707.75;4381252;32;20089;-85
2023/03/21 09:04:24;;;;;;;7.32;4.32;;;;;;;17.90;60.17;99706.97;4393504;32;20153;-85
2023/03/21 09:06:50;;;;;;;7.15;4.75;;;;;;;17.77;60.17;99714.81;4381482;32;20167;-85
2023/03/21 09:09:16;;;;;;;7.40;4.57;;;;;;;17.72;60.16;99716.84;4381418;32;20102;-84
2023/03/21 09:11:42;;;;;;;5.95;4.28;;;;;;;17.35;60.14;99716.44;4393565;32;20177;-85
2023/03/21 09:14:07;;;;;;;5.18;4.30;;;;;;;17.28;60.14;99717.78;4393849;32;20410;-85
2023/03/21 09:16:33;;;;;;;6.70;4.45;;;;;;;17.33;60.14;99722.75;4381235;32;20110;-84
2023/03/21 09:18:58;;;;;;;7.47;4.50;;;;;;;17.42;60.15;99725.66;4381083;32;20457;-85
2023/03/21 09:21:25;;;;;;;8.63;4.80;;;;;;;17.38;60.14;99723.31;4368328;32;20086;-85
2023/03/21 09:23:51;;;;;;;6.78;4.90;;;;;;;17.43;60.15;99721.25;4393694;32;20105;-85
2023/03/21 09:26:18;;;;;;;6.80;4.90;;;;;;;17.44;60.14;99717.66;4381162;32;20114;-85
2023/03/21 09:28:45;;;;;;;5.75;4.40;;;;;;;17.65;60.16;99721.63;4381055;32;20135;-85
2023/03/21 09:31:11;;;;;;;7.78;4.50;;;;;;;17.92;60.17;99718.25;4381360;32;20125;-85
2023/03/21 09:33:38;;;;;;;6.90;4.57;;;;;;;18.13;60.18;99718.69;4393739;32;20445;-85
2023/03/21 09:36:05;;;;;;;7.80;4.57;;;;;;;18.32;60.19;99704.25;4393819;32;20519;-86
2023/03/21 09:38:35;;;;;;;5.20;4.10;;;;;;;18.38;60.20;99716.16;4381031;32;20177;-85
2023/03/21 09:41:07;;;;;;;5.57;4.25;;;;;;;18.45;60.20;99716.63;4381193;32;20438;-85
2023/03/21 09:43:42;;;;;;;6.65;4.80;;;;;;;18.42;60.20;99709.75;4393289;32;20580;-85
2023/03/21 09:46:24;;;;;;;5.68;4.43;;;;;;;18.32;60.20;99713.94;4368806;32;20125;-85
2023/03/21 09:48:59;;;;;;;6.07;4.70;;;;;;;18.29;60.19;99711.50;4386943;32;215798;-85
2023/03/21 09:51:35;;;;;;;8.50;4.60;;;;;;;18.35;60.19;99705.84;4382186;32;20491;-85
2023/03/21 09:54:07;;;;;;;5.18;3.85;;;;;;;18.43;60.20;99706.16;4382503;32;20183;-85
2023/03/21 09:56:35;;;;;;;5.55;3.42;;;;;;;18.30;60.20;99702.66;4382050;32;20177;-85
2023/03/21 09:59:00;;;;;;;6.03;3.78;;;;;;;18.32;60.20;99703.41;4382173;32;20485;-85
2023/03/21 10:01:33;;;;;;;5.70;2.33;;;;;;;18.12;60.19;99694.13;4383467;32;20138;-85
2023/03/21 10:04:05;;;;;;;2.85;2.20;;;;;;;18.31;60.21;99699.91;4384258;32;20165;-85
2023/03/21 10:06:31;;;;;;;5.12;3.10;;;;;;;18.42;60.20;99692.16;4383949;32;20106;-85
2023/03/21 10:09:00;;;;;;;5.20;3.70;;;;;;;18.38;60.21;99688.03;4396087;32;20469;-85
2023/03/21 10:11:31;;;;;;;4.03;3.12;;;;;;;18.54;60.21;99690.50;4383828;32;20128;-85
2023/03/21 10:14:06;;;;;;;4.80;3.37;;;;;;;18.57;60.21;99681.56;4383500;32;20173;-85
2023/03/21 10:16:33;;;;;;;3.97;2.90;;;;;;;18.75;60.21;99680.37;4384346;32;20131;-85
2023/03/21 10:19:08;;;;;;;2.37;1.85;;;;;;;18.87;60.23;99678.69;4396203;32;20106;-85
2023/03/21 10:21:33;;;;;;;3.67;2.15;;;;;;;18.92;60.23;99690.63;4384001;32;20197;-85
2023/03/21 10:23:59;;;;;;;4.50;2.70;;;;;;;18.95;60.23;99671.13;4382852;32;20153;-85
2023/03/21 10:26:26;;;;;;;5.10;1.98;;;;;;;19.16;60.25;99668.78;4383504;32;20137;-85
2023/03/21 10:28:52;;;;;;;4.05;2.47;;;;;;;18.97;60.22;99674.50;4383568;32;20149;-85
2023/03/21 10:31:19;;;;;;;3.22;1.60;;;;;;;18.90;60.23;99676.69;4383547;32;20143;-85
2023/03/21 10:33:46;;;;;;;3.55;1.87;;;;;;;19.06;60.23;99681.78;4383453;32;20109;-85
2023/03/21 10:36:16;;;;;;;2.50;1.92;;;;;;;19.26;60.24;99675.16;4383504;32;20232;-86
2023/03/21 10:38:47;;;;;;;2.10;1.67;;;;;;;19.14;60.23;99671.53;4383665;32;20094;-86
2023/03/21 10:41:12;;;;;;;2.90;1.92;;;;;;;19.44;60.25;99673.87;4383077;32;20125;-85
2023/03/21 10:43:40;;;;;;;3.58;2.40;;;;;;;19.66;60.27;99672.41;4383200;32;20120;-85
2023/03/21 10:46:11;;;;;;;4.15;2.30;;;;;;;19.98;60.28;99672.75;4383608;32;20163;-85
2023/03/21 10:48:38;;;;;;;2.70;1.85;;;;;;;19.92;60.29;99666.97;4383498;32;20259;-86
2023/03/21 10:51:05;;;;;;;3.05;1.70;;;;;;;20.12;60.30;99651.47;4395926;32;20108;-85
2023/03/21 10:53:32;;;;;;;2.25;1.30;;;;;;;20.28;60.30;99653.81;4383420;32;20098;-85
2023/03/21 10:55:59;;;;;;;4.03;2.87;;;;;;;20.12;60.29;99656.75;4383356;32;20170;-85
2023/03/21 10:58:26;;;;;;;2.20;1.73;;;;;;;19.97;60.28;99657.84;4383243;32;20089;-85
2023/03/21 11:00:59;;;;;;;2.45;1.40;;;;;;;20.05;60.29;99663.41;4383044;32;20102;-85
2023/03/21 11:03:31;;;;;;;2.65;1.15;;;;;;;19.84;60.27;99664.00;4383896;32;20102;-85
2023/03/21 11:06:12;;;;;;;3.03;1.33;;;;;;;19.83;60.27;99642.97;4395667;32;20582;-85
2023/03/21 11:08:39;;;;;;;1.73;1.30;;;;;;;19.78;60.28;99648.59;4383594;32;20120;-85
2023/03/21 11:11:06;;;;;;;3.45;1.80;;;;;;;19.92;60.29;99644.97;4382848;32;20443;-84
2023/03/21 11:13:39;;;;;;;2.58;1.20;;;;;;;19.85;60.28;99644.56;4383161;32;20134;-85
2023/03/21 11:16:06;;;;;;;1.62;1.40;;;;;;;19.71;60.27;99634.16;4383106;32;20110;-85
2023/03/21 11:18:34;;;;;;;3.05;1.90;;;;;;;20.01;60.29;99622.31;4395901;32;20185;-85
2023/03/21 11:21:04;;;;;;;3.35;1.98;;;;;;;20.05;60.29;99621.97;4395762;32;20108;-84
2023/03/21 11:23:31;;;;;;;2.28;1.40;;;;;;;19.87;60.28;99634.75;4382965;32;20129;-85
2023/03/21 11:25:58;;;;;;;3.10;1.98;;;;;;;20.13;60.29;99634.66;4383131;32;20477;-85
2023/03/21 11:28:24;;;;;;;3.40;2.15;;;;;;;20.08;60.30;99627.03;4382714;32;20161;-85
2023/03/21 11:30:52;;;;;;;2.22;1.45;;;;;;;20.03;60.29;99630.97;4382872;32;20103;-84
2023/03/21 11:33:18;;;;;;;2.37;1.10;;;;;;;19.55;60.26;99642.31;4383253;32;20392;-85
2023/03/21 11:35:43;;;;;;;3.62;1.48;;;;;;;19.71;60.27;99625.38;4395546;32;20132;-85
2023/03/21 11:38:23;;;;;;;1.87;1.10;;;;;;;19.77;60.28;99620.50;4382813;32;20150;-84
2023/03/21 11:40:53;;;;;;;2.30;1.83;;;;;;;19.90;60.28;99620.47;4382979;32;20078;-85